Time;durP1;ratioP1;P1;durP2;ratioP2;P2;SDS_P1;SDS_P2;PMS_P1;PMS_P2;Temp;Humidity;BMP_temperature;BMP_pressure;BME280_temperature;BME280_humidity;BME280_pressure;Samples;Min_cycle;Max_cycle;Signal;HPM_P1;HPM_P2
2022/10/27 00:09:49;;;;;;;4.28;3.63;;;;;;;21.82;61.68;101263.38;21070979;27;20099;-75
2022/10/27 00:19:49;;;;;;;4.07;3.60;;;;;;;21.79;61.75;101258.28;21068072;27;20050;-75
2022/10/27 00:29:50;;;;;;;5.55;3.97;;;;;;;21.80;61.86;101262.63;21071476;27;20047;-75
2022/10/27 00:39:50;;;;;;;5.15;3.95;;;;;;;21.76;61.78;101272.53;21080533;28;20047;-75
2022/10/27 00:49:53;;;;;;;4.57;3.65;;;;;;;21.76;62.17;101272.53;21086070;27;20048;-76
2022/10/27 00:59:54;;;;;;;4.15;3.47;;;;;;;21.74;61.90;101277.91;21079922;27;20047;-76
2022/10/27 01:09:57;;;;;;;4.55;3.60;;;;;;;;;;21078669;27;20059;-75
2022/10/27 01:20:00;;;;;;;3.83;3.35;;;;;;;21.75;61.77;101287.50;21082792;27;20124;-75
2022/10/27 01:30:05;;;;;;;4.78;3.58;;;;;;;21.72;61.57;101292.97;21079472;27;20529;-75
2022/10/27 01:40:35;;;;;;;4.10;3.55;;;;;;;21.73;61.74;101299.94;21082253;27;20494;-75
2022/10/27 01:50:38;;;;;;;4.25;3.47;;;;;;;21.70;61.65;101294.00;21075450;27;20441;-74
2022/10/27 02:01:10;;;;;;;5.80;3.72;;;;;;;21.70;61.79;101300.16;21071495;27;20040;-76
2022/10/27 02:11:11;;;;;;;4.50;3.90;;;;;;;21.69;61.75;101302.88;21033828;27;20896;-75
2022/10/27 02:21:15;;;;;;;5.60;3.72;;;;;;;21.67;61.70;101310.88;21073834;27;20043;-76
2022/10/27 02:31:21;;;;;;;3.95;3.33;;;;;;;21.67;61.67;101302.97;21098734;27;20121;-74
2022/10/27 02:41:21;;;;;;;4.93;3.47;;;;;;;21.68;61.33;101311.72;21076946;27;20041;-74
2022/10/27 02:51:21;;;;;;;5.03;3.70;;;;;;;21.67;61.60;101310.06;21080877;27;20047;-75
2022/10/27 03:01:22;;;;;;;3.78;3.25;;;;;;;21.65;61.33;101317.19;21071484;27;20498;-74
2022/10/27 03:11:22;;;;;;;4.20;3.50;;;;;;;21.65;61.14;101333.84;21071798;27;20032;-74
2022/10/27 03:21:23;;;;;;;5.30;3.45;;;;;;;21.64;61.41;101331.31;21061097;27;20059;-75
2022/10/27 03:31:23;;;;;;;4.07;3.47;;;;;;;21.65;61.56;101331.22;21057933;27;20039;-75
2022/10/27 03:41:23;;;;;;;3.53;3.22;;;;;;;21.64;61.47;101342.72;21062580;27;20089;-75
2022/10/27 03:51:24;;;;;;;3.92;3.30;;;;;;;21.62;61.12;101349.88;21060993;27;20055;-75
2022/10/27 04:01:24;;;;;;;4.80;3.20;;;;;;;21.62;61.94;101341.97;21057720;27;20040;-74
2022/10/27 04:11:25;;;;;;;3.70;3.10;;;;;;;21.64;61.51;101355.03;21053523;27;20047;-75
2022/10/27 04:21:25;;;;;;;3.83;3.30;;;;;;;21.63;61.87;101350.72;21052386;27;20105;-74
2022/10/27 04:31:26;;;;;;;7.28;3.63;;;;;;;21.69;62.54;101358.22;21055649;27;20040;-74
2022/10/27 04:41:26;;;;;;;9.05;3.80;;;;;;;21.72;63.01;101365.94;21052433;27;20036;-74
2022/10/27 04:51:26;;;;;;;8.07;3.63;;;;;;;21.74;63.03;101383.34;21046602;27;20067;-74
2022/10/27 05:01:27;;;;;;;11.32;4.40;;;;;;;21.71;62.01;101394.06;21044283;28;20036;-74
2022/10/27 05:11:27;;;;;;;9.48;6.05;;;;;;;21.65;60.68;101386.56;21037533;28;20401;-75
2022/10/27 05:21:28;;;;;;;10.73;7.82;;;;;;;21.64;60.62;101399.84;21036845;27;20032;-71
2022/10/27 05:31:28;;;;;;;13.63;6.32;;;;;;;21.64;61.50;101403.34;21053459;27;20051;-72
2022/10/27 05:41:34;;;;;;;11.27;5.43;;;;;;;21.65;61.71;101412.09;21065268;27;20036;-72
2022/10/27 05:51:35;;;;;;;11.15;7.50;;;;;;;21.61;60.01;101427.25;21103434;27;20164;-77
2022/10/27 06:01:36;;;;;;;11.98;5.40;;;;;;;21.68;61.27;101438.22;21108970;27;20464;-74
2022/10/27 06:11:36;;;;;;;9.93;4.88;;;;;;;21.66;61.39;101445.41;21101894;27;20039;-74
2022/10/27 06:21:41;;;;;;;8.55;4.72;;;;;;;21.67;61.29;101455.84;21118015;27;20053;-73
2022/10/27 06:31:41;;;;;;;8.48;4.93;;;;;;;21.67;61.33;101455.84;21092209;27;20048;-76
2022/10/27 06:41:42;;;;;;;18.50;10.60;;;;;;;21.68;61.36;101472.50;21073994;27;20517;-73
2022/10/27 06:51:42;;;;;;;40.42;20.80;;;;;;;21.70;61.57;101486.44;21058836;27;20054;-73
2022/10/27 07:01:43;;;;;;;36.45;20.65;;;;;;;21.70;61.16;101499.63;21063287;27;20043;-73
2022/10/27 07:11:43;;;;;;;34.50;19.63;;;;;;;21.70;61.21;101503.13;21064342;27;20051;-74
2022/10/27 07:21:43;;;;;;;33.63;19.65;;;;;;;21.71;61.41;101522.41;21060137;27;20047;-74
2022/10/27 07:31:45;;;;;;;32.38;20.00;;;;;;;21.69;61.37;101527.78;21055243;27;20044;-74
2022/10/27 07:41:45;;;;;;;31.17;18.25;;;;;;;21.74;61.36;101538.88;21067991;27;20379;-75
2022/10/27 07:51:46;;;;;;;29.05;18.00;;;;;;;21.75;61.05;101561.69;21059380;27;20047;-75
2022/10/27 08:01:46;;;;;;;27.92;17.65;;;;;;;21.76;61.41;101562.50;21070897;27;20047;-75
2022/10/27 08:11:46;;;;;;;44.45;21.33;;;;;;;21.76;61.29;101578.34;21055238;27;20395;-75
2022/10/27 08:21:47;;;;;;;33.95;19.10;;;;;;;21.75;60.97;101590.69;21065291;27;20032;-76
2022/10/27 08:31:47;;;;;;;32.60;18.48;;;;;;;21.77;60.95;101595.00;21065171;28;20032;-76
2022/10/27 08:42:06;;;;;;;31.75;17.70;;;;;;;21.75;60.96;101593.31;21054378;27;20072;-77
2022/10/27 08:52:11;;;;;;;25.20;16.48;;;;;;;21.75;60.80;101590.69;21041439;28;20035;-76
2022/10/27 09:02:22;;;;;;;31.63;17.13;;;;;;;;;;21081126;27;20046;-76
2022/10/27 09:12:48;;;;;;;26.02;16.55;;;;;;;21.80;60.86;101593.03;21087744;27;20043;-76
2022/10/27 09:22:53;;;;;;;24.42;14.98;;;;;;;21.82;60.66;101591.13;21065223;27;20032;-76
2022/10/27 09:32:55;;;;;;;25.00;14.60;;;;;;;21.85;60.97;101606.78;21070330;27;20114;-76
2022/10/27 09:42:56;;;;;;;21.20;13.57;;;;;;;21.87;60.79;101606.69;21066484;27;20398;-76
2022/10/27 09:52:56;;;;;;;21.15;13.95;;;;;;;21.89;60.50;101597.72;21070802;27;20043;-76
2022/10/27 10:03:02;;;;;;;20.70;12.77;;;;;;;21.92;60.48;101599.34;21066813;27;20525;-76
2022/10/27 10:13:02;;;;;;;17.40;11.60;;;;;;;21.95;60.53;101600.94;21065814;27;20162;-76
2022/10/27 10:23:09;;;;;;;13.43;10.10;;;;;;;21.47;52.11;101601.16;21061185;27;20043;-77
2022/10/27 10:33:15;;;;;;;14.98;10.27;;;;;;;21.68;57.60;101609.56;21056955;27;20039;-72
2022/10/27 10:43:16;;;;;;;12.68;9.05;;;;;;;21.77;58.43;101598.50;21064938;27;20084;-71
2022/10/27 10:53:47;;;;;;;12.55;8.60;;;;;;;21.83;58.68;101595.47;21076545;27;20027;-75
2022/10/27 11:03:53;;;;;;;10.15;7.82;;;;;;;21.88;59.05;101596.03;21069105;27;20047;-76
2022/10/27 11:14:00;;;;;;;10.98;7.13;;;;;;;21.93;59.24;101597.56;21083084;27;20072;-75
2022/10/27 11:24:24;;;;;;;12.27;7.75;;;;;;;21.97;59.23;101597.28;21072451;27;20082;-76
2022/10/27 11:34:37;;;;;;;13.15;7.40;;;;;;;21.99;59.29;101594.53;21034382;27;20044;-76
2022/10/27 11:44:52;;;;;;;10.95;7.15;;;;;;;22.00;59.40;101589.16;21071380;27;20387;-71
2022/10/27 11:54:53;;;;;;;10.55;7.53;;;;;;;22.03;59.48;101583.72;21075697;27;20032;-76
2022/10/27 12:05:11;;;;;;;11.88;7.18;;;;;;;22.02;59.48;101579.38;21062355;22;20055;-77
2022/10/27 12:15:21;;;;;;;10.30;7.30;;;;;;;22.05;59.35;101567.78;20988239;28;20040;-80
2022/10/27 12:25:43;;;;;;;10.88;6.85;;;;;;;22.05;59.32;101558.06;20986380;28;20040;-80
2022/10/27 12:35:47;;;;;;;9.07;6.43;;;;;;;22.10;59.37;101549.03;20980282;28;20124;-79
2022/10/27 12:46:03;;;;;;;10.50;6.72;;;;;;;22.10;59.28;101547.22;20974878;28;20044;-79
2022/10/27 12:56:22;;;;;;;13.30;7.18;;;;;;;22.12;58.92;101545.34;20970873;28;20076;-76
2022/10/27 13:06:28;;;;;;;9.52;6.70;;;;;;;22.13;59.08;101554.09;20932862;28;20048;-77
2022/10/27 13:16:48;;;;;;;12.20;6.50;;;;;;;22.13;59.12;101548.81;20974152;28;20093;-79
2022/10/27 13:26:52;;;;;;;9.38;6.00;;;;;;;22.16;59.17;101538.09;20981288;28;20049;-78
2022/10/27 13:37:35;;;;;;;10.63;6.40;;;;;;;22.17;58.96;101548.53;20973992;28;20113;-79
2022/10/27 13:47:36;;;;;;;11.57;7.20;;;;;;;22.12;58.92;101555.03;20986753;28;20068;-80
2022/10/27 13:57:54;;;;;;;7.60;6.05;;;;;;;22.10;59.00;101556.94;20988905;28;20043;-74
2022/10/27 14:07:55;;;;;;;11.02;5.93;;;;;;;22.07;59.12;101560.63;20969820;28;22360;-74
2022/10/27 14:17:56;;;;;;;12.68;5.70;;;;;;;22.06;58.83;101553.66;20977511;28;20040;-78
2022/10/27 14:28:17;;;;;;;17.15;5.70;;;;;;;22.09;59.22;101564.00;20960008;28;20044;-78
2022/10/27 14:38:18;;;;;;;11.77;5.68;;;;;;;22.13;59.50;101562.88;20970116;28;20044;-77
2022/10/27 14:48:26;;;;;;;8.83;5.70;;;;;;;22.14;59.61;101563.72;20978852;28;20075;-77
2022/10/27 14:58:26;;;;;;;8.60;5.45;;;;;;;22.15;59.63;101565.41;20983596;28;20047;-78
2022/10/27 15:08:34;;;;;;;14.77;8.75;;;;;;;21.95;56.98;101572.78;20979224;28;20047;-79
2022/10/27 15:18:38;;;;;;;11.93;6.45;;;;;;;22.05;58.76;101568.63;20949940;28;20036;-78
2022/10/27 15:28:39;;;;;;;8.52;5.80;;;;;;;22.07;58.68;101565.91;20968032;28;20040;-79
2022/10/27 15:38:43;;;;;;;;;;;;;;;22.09;59.00;101569.28;20977896;28;20048;-79
2022/10/27 15:48:47;;;;;;;8.45;4.70;;;;;;;22.04;59.03;101572.19;20958427;28;19928;-80
2022/10/27 15:59:18;;;;;;;9.35;5.50;;;;;;;22.04;58.87;101579.28;20961471;28;20112;-79
2022/10/27 16:09:36;;;;;;;9.20;4.53;;;;;;;22.04;59.10;101582.75;20956154;28;20054;-78
2022/10/27 16:19:36;;;;;;;8.73;5.80;;;;;;;22.07;59.43;101585.19;20947631;28;20529;-79
2022/10/27 16:29:39;;;;;;;9.05;5.65;;;;;;;22.06;59.29;101590.59;20955637;28;20044;-79
2022/10/27 16:39:39;;;;;;;12.50;5.93;;;;;;;22.01;59.18;101592.66;20978112;28;20697;-81
2022/10/27 16:49:40;;;;;;;8.20;5.25;;;;;;;22.01;59.47;101595.31;21037433;28;20040;-82
2022/10/27 16:59:40;;;;;;;8.40;5.05;;;;;;;21.98;59.35;101598.94;21011890;28;21134;-81
2022/10/27 17:09:40;;;;;;;7.82;5.20;;;;;;;21.97;59.54;101609.59;20985138;28;20050;-81
2022/10/27 17:19:41;;;;;;;12.65;5.28;;;;;;;21.96;59.78;101611.41;20967286;28;20128;-81
2022/10/27 17:29:41;;;;;;;13.55;4.95;;;;;;;22.05;60.70;101617.91;20955624;28;20067;-81
2022/10/27 17:39:42;;;;;;;7.93;4.97;;;;;;;22.04;61.04;101622.31;20963302;28;20032;-78
2022/10/27 17:49:42;;;;;;;15.13;5.32;;;;;;;22.07;61.35;101623.94;20951467;28;20048;-77
2022/10/27 17:59:42;;;;;;;11.85;4.78;;;;;;;22.05;60.99;101625.81;20961560;28;20041;-78
2022/10/27 18:09:43;;;;;;;8.85;4.97;;;;;;;22.03;60.94;101627.69;20971635;28;20434;-80
2022/10/27 18:19:44;;;;;;;11.55;6.03;;;;;;;22.08;62.19;101617.69;20993310;28;20036;-80
2022/10/27 18:29:44;;;;;;;20.77;12.40;;;;;;;22.18;65.20;101628.53;20989967;28;20039;-81
2022/10/27 18:39:44;;;;;;;157.73;34.15;;;;;;;22.25;66.89;101627.19;20984872;28;20048;-80
2022/10/27 18:49:45;;;;;;;394.75;82.72;;;;;;;22.29;67.00;101628.72;20987610;28;20127;-79
2022/10/27 18:59:46;;;;;;;292.52;64.50;;;;;;;22.25;66.50;101632.47;20985102;28;20044;-81
2022/10/27 19:09:46;;;;;;;256.90;61.17;;;;;;;22.26;66.11;101628.06;20986003;28;20094;-79
2022/10/27 19:19:47;;;;;;;197.13;51.13;;;;;;;22.22;64.76;101632.69;20977922;28;20029;-76
2022/10/27 19:29:48;;;;;;;161.77;45.60;;;;;;;22.18;64.97;101637.31;20986736;28;20044;-78
2022/10/27 19:39:48;;;;;;;171.13;42.30;;;;;;;22.18;64.37;101634.66;20987259;28;20077;-78
2022/10/27 19:49:49;;;;;;;143.88;39.60;;;;;;;22.16;64.42;101649.72;20984944;28;20130;-78
2022/10/27 19:59:49;;;;;;;114.47;35.55;;;;;;;22.15;64.33;101660.38;20991503;28;24555;-78
2022/10/27 20:09:49;;;;;;;110.18;35.50;;;;;;;22.14;64.19;101667.47;20992911;28;20044;-78
2022/10/27 20:19:51;;;;;;;121.25;34.72;;;;;;;22.09;64.22;101664.22;20994421;28;20129;-78
2022/10/27 20:29:51;;;;;;;105.38;32.58;;;;;;;22.04;64.38;101666.31;20994016;28;20040;-78
2022/10/27 20:39:51;;;;;;;97.40;31.67;;;;;;;22.03;64.06;101661.97;20996372;28;20055;-77
2022/10/27 20:49:52;;;;;;;89.97;28.73;;;;;;;22.00;63.93;101665.66;20971792;28;20124;-77
2022/10/27 20:59:52;;;;;;;82.95;28.23;;;;;;;21.99;64.22;101658.69;21006054;28;20375;-77
2022/10/27 21:09:52;;;;;;;74.03;26.52;;;;;;;21.99;64.21;101669.22;21021113;28;20056;-78
2022/10/27 21:19:53;;;;;;;72.28;26.45;;;;;;;22.03;63.97;101664.63;21002408;28;20048;-78
2022/10/27 21:29:53;;;;;;;72.50;27.23;;;;;;;22.04;64.15;101658.41;21009626;28;20093;-78
2022/10/27 21:39:54;;;;;;;64.68;23.90;;;;;;;22.05;64.32;101666.22;20986797;28;20402;-77
2022/10/27 21:49:54;;;;;;;61.58;23.92;;;;;;;22.06;63.86;101667.06;20987082;28;20045;-77
2022/10/27 21:59:54;;;;;;;63.50;23.65;;;;;;;22.04;64.04;101669.78;20986311;28;20040;-78
2022/10/27 22:09:55;;;;;;;56.17;23.23;;;;;;;22.01;63.90;101675.25;20991252;28;20044;-77
2022/10/27 22:19:55;;;;;;;50.30;20.35;;;;;;;22.02;63.83;101669.06;20975671;28;20090;-78
2022/10/27 22:29:55;;;;;;;55.17;21.20;;;;;;;21.99;64.08;101679.78;20986864;28;20433;-78
2022/10/27 22:39:56;;;;;;;52.05;20.42;;;;;;;21.97;64.20;101679.03;20984306;28;20069;-78
2022/10/27 22:49:56;;;;;;;52.20;20.52;;;;;;;21.91;64.22;101677.59;20986466;28;20131;-76
2022/10/27 22:59:57;;;;;;;42.28;18.63;;;;;;;21.91;64.06;101680.25;20987682;28;20047;-76
2022/10/27 23:09:57;;;;;;;36.25;17.63;;;;;;;21.89;63.71;101676.00;20982678;28;21318;-77
2022/10/27 23:19:58;;;;;;;38.83;17.48;;;;;;;21.86;63.94;101677.03;20983738;28;20058;-76
2022/10/27 23:29:59;;;;;;;38.65;18.00;;;;;;;21.89;63.62;101683.91;20982500;28;20035;-78
2022/10/27 23:39:59;;;;;;;38.17;16.00;;;;;;;21.86;63.87;101686.72;20990237;28;20063;-78
2022/10/27 23:50:00;;;;;;;33.88;15.82;;;;;;;21.83;64.09;101682.47;20982280;28;20158;-77
